Time;durP1;ratioP1;P1;durP2;ratioP2;P2;SDS_P1;SDS_P2;PMS_P1;PMS_P2;Temp;Humidity;BMP_temperature;BMP_pressure;BME280_temperature;BME280_humidity;BME280_pressure;Samples;Min_cycle;Max_cycle;Signal;HPM_P1;HPM_P2
2021/10/20 08:00:58;;;;;;;12.50;6.30;;;9.80;70.60;;;;;;5991174;24;20019;-93
2021/10/20 08:08:09;;;;;;;;;;;;;;;;;;;;;
2021/10/20 08:15:41;;;;;;;;;;;;;;;;;;;;;
2021/10/20 08:27:07;;;;;;;5.68;3.60;;;10.70;67.20;;;;;;5804772;24;20065;-91
2021/10/20 09:13:48;;;;;;;3.28;2.55;;;12.10;56.80;;;;;;6377168;22;20018;-93
2021/10/20 09:19:41;;;;;;;6.60;3.10;;;12.10;56.60;;;;;;6351326;22;20344;-93
2021/10/20 09:22:10;;;;;;;8.40;3.40;;;12.10;56.70;;;;;;6363298;22;20006;-92
2021/10/20 09:24:41;;;;;;;6.90;3.65;;;12.20;56.80;;;;;;6369436;22;20009;-92
2021/10/20 09:27:39;;;;;;;5.25;3.63;;;12.20;56.90;;;;;;6368454;22;20308;-93
2021/10/20 09:31:23;;;;;;;;;;;;;;;;;;;;;
2021/10/20 09:33:42;;;;;;;4.68;2.95;;;12.40;57.10;;;;;;6358858;22;20005;-92
2021/10/20 09:36:21;;;;;;;3.45;2.90;;;12.50;57.30;;;;;;6337516;22;20002;-93
2021/10/20 09:38:51;;;;;;;6.03;3.53;;;12.50;57.50;;;;;;6363904;22;19994;-92
2021/10/20 09:41:18;;;;;;;5.00;3.45;;;12.70;56.80;;;;;;6363529;22;20046;-92
2021/10/20 09:43:55;;;;;;;6.57;4.20;;;12.70;55.90;;;;;;6344776;22;20002;-92
2021/10/20 09:46:37;;;;;;;5.63;3.50;;;12.70;56.40;;;;;;6378106;22;19990;-92
2021/10/20 09:52:00;;;;;;;6.75;3.00;;;12.80;56.00;;;;;;6405956;22;20028;-92
2021/10/20 09:55:09;;;;;;;4.43;3.10;;;12.90;56.20;;;;;;6373816;22;20006;-91
2021/10/20 09:57:35;;;;;;;6.55;3.72;;;12.90;54.30;;;;;;6346532;22;20444;-89
2021/10/20 10:02:35;;;;;;;5.78;3.67;;;13.10;55.40;;;;;;6302392;22;20069;-94
2021/10/20 10:05:12;;;;;;;7.43;4.20;;;13.20;55.40;;;;;;6273993;22;20063;-95
2021/10/20 10:07:40;;;;;;;5.07;3.33;;;13.30;55.00;;;;;;6272711;22;20000;-94
2021/10/20 10:10:09;;;;;;;7.38;3.80;;;13.40;54.80;;;;;;6276870;22;20067;-95
2021/10/20 10:12:42;;;;;;;5.43;3.63;;;13.50;55.10;;;;;;6294241;22;19996;-94
2021/10/20 10:15:11;;;;;;;5.07;3.70;;;13.70;54.90;;;;;;6267259;22;20041;-94
2021/10/20 10:17:41;;;;;;;4.97;3.28;;;13.90;54.60;;;;;;6273184;22;20087;-96
2021/10/20 10:20:31;;;;;;;;;;;;;;;;;;;;;
2021/10/20 10:23:38;;;;;;;8.40;4.40;;;14.20;53.90;;;;;;6298946;22;19996;-94
2021/10/20 10:26:47;;;;;;;6.63;3.63;;;14.30;53.50;;;;;;6269017;22;20015;-95
2021/10/20 10:29:14;;;;;;;7.13;4.30;;;14.40;53.40;;;;;;6271244;22;20008;-95
2021/10/20 10:32:10;;;;;;;7.72;4.18;;;14.60;53.30;;;;;;6271009;22;20000;-95
2021/10/20 10:35:05;;;;;;;5.78;3.78;;;14.60;52.70;;;;;;6269439;22;20000;-94
2021/10/20 10:37:44;;;;;;;5.85;3.95;;;14.70;52.50;;;;;;6299663;22;20386;-95
2021/10/20 10:40:32;;;;;;;11.98;4.45;;;14.70;52.10;;;;;;6274271;22;20077;-95
2021/10/20 10:43:42;;;;;;;7.35;3.83;;;14.70;52.10;;;;;;6270411;22;20007;-96
2021/10/20 10:46:30;;;;;;;;;;;;;;;;;;;;;
2021/10/20 10:48:56;;;;;;;7.70;5.18;;;14.80;52.90;;;;;;6297709;22;20010;-94
2021/10/20 10:51:38;;;;;;;8.13;5.03;;;14.80;52.50;;;;;;6269974;22;20007;-94
2021/10/20 10:57:31;;;;;;;;;;;;;;;;;;;;;
2021/10/20 11:00:29;;;;;;;10.70;5.45;;;14.80;52.10;;;;;;6297438;22;19999;-95
2021/10/20 11:03:22;;;;;;;6.65;4.45;;;14.80;52.00;;;;;;6269594;22;20071;-94
2021/10/20 11:05:55;;;;;;;7.40;4.57;;;14.80;51.90;;;;;;6273011;22;20014;-95
2021/10/20 11:08:28;;;;;;;7.38;3.80;;;14.70;52.30;;;;;;6298665;22;19999;-92
2021/10/20 11:10:57;;;;;;;5.97;4.00;;;14.70;52.10;;;;;;6270470;22;20041;-96
2021/10/20 11:13:31;;;;;;;6.28;3.90;;;14.60;52.20;;;;;;6295343;22;19998;-93
2021/10/20 11:15:57;;;;;;;9.30;4.40;;;14.50;52.60;;;;;;6292926;22;20025;-94
2021/10/20 11:18:26;;;;;;;6.10;4.22;;;14.50;52.80;;;;;;6266214;22;19996;-95
2021/10/20 11:21:30;;;;;;;6.60;4.93;;;14.50;53.00;;;;;;6245772;22;20071;-95
2021/10/20 11:24:11;;;;;;;10.52;5.47;;;14.50;52.60;;;;;;6268546;22;20056;-95
2021/10/20 11:26:42;;;;;;;12.57;6.05;;;14.40;52.90;;;;;;6269305;22;20008;-94
2021/10/20 11:29:20;;;;;;;8.15;5.90;;;14.30;53.10;;;;;;6274101;22;20004;-95
2021/10/20 11:32:01;;;;;;;8.75;5.78;;;14.20;53.60;;;;;;6272569;22;19995;-94
2021/10/20 11:34:54;;;;;;;;;;;;;;;;;;;;;
2021/10/20 11:37:25;;;;;;;9.60;5.05;;;14.10;54.40;;;;;;6301674;22;20003;-94
2021/10/20 11:40:08;;;;;;;;;;;;;;;;;;;;;
2021/10/20 11:42:45;;;;;;;10.35;6.50;;;14.10;54.90;;;;;;6363188;22;20038;-93
2021/10/20 11:45:11;;;;;;;9.25;5.95;;;14.10;55.20;;;;;;6356361;22;20006;-94
2021/10/20 11:47:42;;;;;;;9.38;6.15;;;14.10;55.40;;;;;;6355844;22;20010;-94
2021/10/20 11:50:32;;;;;;;13.88;6.28;;;14.20;55.70;;;;;;6352827;22;20014;-93
2021/10/20 11:53:04;;;;;;;8.48;5.65;;;14.20;56.10;;;;;;6345313;22;20028;-94
2021/10/20 11:55:30;;;;;;;8.52;5.25;;;14.20;56.10;;;;;;6351895;22;20413;-95
2021/10/20 11:57:58;;;;;;;7.28;5.40;;;14.30;56.40;;;;;;6352876;22;19999;-95
2021/10/20 12:00:25;;;;;;;7.55;5.07;;;14.30;56.50;;;;;;6351142;22;20058;-94
2021/10/20 12:02:51;;;;;;;11.52;6.35;;;14.30;56.60;;;;;;6345439;22;20010;-94
2021/10/20 12:05:24;;;;;;;9.38;6.47;;;14.40;56.90;;;;;;6346560;22;19991;-95
2021/10/20 12:07:50;;;;;;;10.50;5.93;;;14.40;57.00;;;;;;6356924;22;20006;-94
2021/10/20 12:10:21;;;;;;;9.68;5.30;;;14.40;57.20;;;;;;6359282;22;20010;-95
2021/10/20 12:12:50;;;;;;;10.13;6.03;;;14.30;57.40;;;;;;6357322;22;20002;-94
2021/10/20 12:15:49;;;;;;;10.00;6.18;;;14.30;57.70;;;;;;6354661;22;20003;-94
2021/10/20 12:18:16;;;;;;;10.70;5.88;;;14.30;58.10;;;;;;6355803;22;20000;-94
2021/10/20 12:21:00;;;;;;;9.20;5.88;;;14.30;58.40;;;;;;6352597;22;20002;-94
2021/10/20 12:26:05;;;;;;;10.65;5.78;;;14.30;59.00;;;;;;6365110;22;20029;-93
2021/10/20 12:28:34;;;;;;;8.70;5.28;;;14.30;59.40;;;;;;6364475;22;20013;-92
2021/10/20 12:31:11;;;;;;;8.75;5.05;;;14.30;59.80;;;;;;6359016;22;19982;-93
2021/10/20 12:33:45;;;;;;;7.55;5.32;;;14.30;60.10;;;;;;6360532;22;20002;-94
2021/10/20 12:36:14;;;;;;;8.10;4.55;;;14.40;60.70;;;;;;6361140;22;19998;-95
2021/10/20 12:38:42;;;;;;;9.20;5.28;;;14.50;61.00;;;;;;6358226;22;20470;-93
2021/10/20 12:41:30;;;;;;;10.30;6.05;;;14.50;61.30;;;;;;6380518;22;20002;-94
2021/10/20 12:44:05;;;;;;;8.88;5.80;;;14.60;61.80;;;;;;6353167;22;19995;-95
2021/10/20 12:46:35;;;;;;;10.13;5.90;;;14.70;62.10;;;;;;6352319;22;20009;-95
2021/10/20 12:56:23;;;;;;;9.82;5.55;;;14.80;63.30;;;;;;6267636;22;20069;-95
2021/10/20 12:59:47;;;;;;;8.95;5.70;;;14.70;63.20;;;;;;6291559;22;20032;-95
2021/10/20 13:02:49;;;;;;;9.30;5.07;;;14.60;63.90;;;;;;6329305;22;20026;-94
2021/10/20 13:06:05;;;;;;;8.50;4.97;;;14.50;64.90;;;;;;6330567;22;20050;-95
2021/10/20 13:09:03;;;;;;;9.68;5.00;;;14.40;64.80;;;;;;6327001;22;20014;-95
2021/10/20 13:11:43;;;;;;;9.27;5.97;;;14.40;65.40;;;;;;6325816;22;20079;-96
2021/10/20 13:14:09;;;;;;;8.07;4.60;;;14.20;65.40;;;;;;6298052;22;19999;-96
2021/10/20 13:16:35;;;;;;;7.90;5.20;;;14.20;65.90;;;;;;6289011;22;20027;-95
2021/10/20 13:19:20;;;;;;;7.05;4.85;;;14.10;66.20;;;;;;6316238;22;20004;-95
2021/10/20 13:21:51;;;;;;;7.57;4.60;;;14.10;66.60;;;;;;6289284;22;20022;-95
2021/10/20 13:24:17;;;;;;;8.20;4.60;;;14.10;67.00;;;;;;6291736;22;20033;-96
2021/10/20 13:26:50;;;;;;;11.30;5.20;;;14.10;67.20;;;;;;6299846;22;20070;-95
2021/10/20 13:29:16;;;;;;;6.38;4.63;;;14.10;67.60;;;;;;6300939;22;20007;-95
2021/10/20 13:32:04;;;;;;;6.63;4.90;;;14.10;67.80;;;;;;6301364;22;20047;-96
2021/10/20 13:34:35;;;;;;;7.00;4.72;;;14.10;68.00;;;;;;6324632;22;20025;-96
2021/10/20 13:37:08;;;;;;;7.10;4.88;;;14.10;68.10;;;;;;6294118;22;20023;-96
2021/10/20 13:39:38;;;;;;;8.30;5.28;;;14.10;68.20;;;;;;6275904;22;20030;-96
2021/10/20 13:42:12;;;;;;;6.28;4.80;;;14.00;68.40;;;;;;6295770;22;19995;-96
2021/10/20 13:44:40;;;;;;;7.75;4.80;;;14.00;68.50;;;;;;6295019;22;20002;-95
2021/10/20 13:47:35;;;;;;;7.70;5.45;;;14.00;68.80;;;;;;6299118;22;20014;-95
2021/10/20 13:50:10;;;;;;;7.72;5.00;;;13.90;68.90;;;;;;6295832;22;20418;-96
2021/10/20 13:52:42;;;;;;;9.90;5.60;;;13.90;69.30;;;;;;6320281;22;20484;-95
2021/10/20 13:55:14;;;;;;;8.15;4.57;;;13.80;69.60;;;;;;6295416;22;20117;-95
2021/10/20 13:57:40;;;;;;;8.38;5.45;;;13.80;69.70;;;;;;6266120;22;20003;-92
2021/10/20 14:00:13;;;;;;;9.50;6.10;;;13.70;69.90;;;;;;6311989;22;20031;-95
2021/10/20 14:06:28;;;;;;;;;;;;;;;;;;;;;
2021/10/20 14:10:01;;;;;;;;;;;;;;;;;;;;;
2021/10/20 14:13:36;;;;;;;;;;;;;;;;;;;;;
2021/10/20 14:16:11;;;;;;;9.75;5.60;;;13.50;71.20;;;;;;6246953;23;20458;-92
2021/10/20 14:18:52;;;;;;;11.98;6.78;;;13.50;71.40;;;;;;6335773;22;20017;-95
2021/10/20 14:21:26;;;;;;;13.75;7.70;;;13.40;71.40;;;;;;6360672;22;19998;-95
2021/10/20 14:24:18;;;;;;;15.43;8.48;;;13.40;71.90;;;;;;6365205;22;20026;-94
2021/10/20 14:41:26;;;;;;;13.30;7.60;;;13.00;73.70;;;;;;6352469;22;20026;-95
2021/10/20 15:09:45;;;;;;;10.30;5.00;;;12.70;76.60;;;;;;6332273;22;20029;-95
2021/10/20 15:12:32;;;;;;;6.07;4.40;;;12.60;76.60;;;;;;6357802;22;20006;-94
2021/10/20 15:15:28;;;;;;;8.43;5.47;;;12.60;77.00;;;;;;6347630;22;20044;-94
2021/10/20 15:21:24;;;;;;;6.13;4.55;;;12.60;77.30;;;;;;6380038;22;19902;-95
2021/10/20 15:24:28;;;;;;;7.47;4.28;;;12.50;77.80;;;;;;6362768;22;20003;-96
2021/10/20 15:27:03;;;;;;;8.63;5.68;;;12.50;77.90;;;;;;6205318;23;20003;-96
2021/10/20 15:29:31;;;;;;;8.70;5.93;;;12.50;77.70;;;;;;6299246;22;20897;31
2021/10/20 15:34:54;;;;;;;11.07;6.63;;;12.50;78.20;;;;;;6315000;22;20027;-94
2021/10/20 15:39:59;;;;;;;10.23;6.20;;;12.50;78.30;;;;;;6363804;22;20074;-96
2021/10/20 15:42:47;;;;;;;11.68;6.45;;;12.50;78.50;;;;;;6336650;22;20025;-96
2021/10/20 15:51:34;;;;;;;10.82;6.95;;;12.40;79.20;;;;;;6341111;22;20046;-96
2021/10/20 15:54:13;;;;;;;13.52;7.38;;;12.40;79.40;;;;;;6301124;22;20089;-95
2021/10/20 16:07:17;;;;;;;7.40;4.85;;;12.40;80.00;;;;;;6294243;22;20025;-94
2021/10/20 16:10:11;;;;;;;9.63;5.75;;;12.40;80.00;;;;;;6390951;22;20002;-96
2021/10/20 16:12:43;;;;;;;7.60;5.10;;;12.40;80.30;;;;;;6383115;22;20026;-95
2021/10/20 16:15:34;;;;;;;;;;;;;;;;;;;;;
2021/10/20 16:18:13;;;;;;;7.55;4.63;;;12.30;80.40;;;;;;6370271;22;20032;-96
2021/10/20 16:24:15;;;;;;;9.27;6.35;;;12.40;80.60;;;;;;6381356;22;20022;-95
2021/10/20 16:26:52;;;;;;;;;;;;;;;;;;;;;
2021/10/20 16:35:54;;;;;;;11.90;6.35;;;12.30;81.50;;;;;;6373928;22;20033;-96
2021/10/20 16:38:40;;;;;;;;;;;12.40;81.50;;;;;;6389035;22;20030;-96
2021/10/20 16:44:50;;;;;;;;;;;;;;;;;;;;;
2021/10/20 16:47:31;;;;;;;12.18;5.53;;;12.40;81.80;;;;;;6337766;22;20018;-96
2021/10/20 16:50:37;;;;;;;8.50;4.82;;;12.40;82.60;;;;;;6360380;22;20018;-96
2021/10/20 16:53:36;;;;;;;7.65;4.30;;;12.40;81.90;;;;;;6334985;22;20033;-96
2021/10/20 16:56:20;;;;;;;8.80;4.78;;;12.30;82.30;;;;;;6360026;22;20403;-96
2021/10/20 17:04:26;;;;;;;10.45;4.38;;;12.30;83.20;;;;;;6382043;22;20872;-95
2021/10/20 17:07:46;;;;;;;;;;;;;;;;;;;;;
2021/10/20 17:10:20;;;;;;;6.70;4.10;;;12.30;83.10;;;;;;6267318;22;19992;-95
2021/10/20 17:12:51;;;;;;;5.93;4.05;;;12.30;83.20;;;;;;6200229;23;20087;-95
2021/10/20 17:15:24;;;;;;;7.15;3.72;;;12.30;83.40;;;;;;6338608;22;20062;-95
2021/10/20 17:17:58;;;;;;;6.28;4.13;;;12.30;83.50;;;;;;6353790;22;20009;-96
2021/10/20 17:20:30;;;;;;;6.32;4.57;;;12.20;84.10;;;;;;6355335;22;20010;-94
2021/10/20 17:22:58;;;;;;;7.65;4.30;;;12.30;84.00;;;;;;6352710;22;20005;-95
2021/10/20 17:25:47;;;;;;;8.18;4.53;;;12.30;84.20;;;;;;6363903;22;20022;-94
2021/10/20 17:28:15;;;;;;;7.32;3.83;;;12.30;84.30;;;;;;6395623;22;19991;-91
2021/10/20 17:39:19;;;;;;;8.85;4.65;;;12.30;84.70;;;;;;6388389;22;20030;-91
2021/10/20 17:41:47;;;;;;;8.38;5.10;;;12.20;85.00;;;;;;6367355;22;20022;-96
2021/10/20 17:44:13;;;;;;;9.55;4.85;;;12.20;85.10;;;;;;6358304;22;20002;-95
2021/10/20 17:46:48;;;;;;;8.98;4.60;;;12.20;85.30;;;;;;6366225;22;20013;-96
2021/10/20 17:49:29;;;;;;;10.55;5.82;;;12.20;85.90;;;;;;6369569;22;19987;-96
2021/10/20 17:52:10;;;;;;;8.20;5.22;;;12.20;86.10;;;;;;6369403;22;19998;-96
2021/10/20 17:54:40;;;;;;;8.32;5.05;;;12.20;86.00;;;;;;6396608;22;20013;-96
2021/10/20 17:57:18;;;;;;;;;;;;;;;;;;;;;
2021/10/20 17:59:50;;;;;;;7.10;5.20;;;12.10;86.40;;;;;;6390827;22;19998;-95
2021/10/20 18:02:21;;;;;;;7.40;4.97;;;12.10;86.60;;;;;;6365075;22;20062;-96
2021/10/20 18:04:51;;;;;;;9.18;5.32;;;12.10;86.80;;;;;;6318455;22;19999;-96
2021/10/20 18:07:23;;;;;;;7.70;5.00;;;12.10;87.10;;;;;;6370665;22;19990;-96
2021/10/20 18:09:51;;;;;;;8.82;4.85;;;12.00;87.60;;;;;;6370408;22;20118;-96
2021/10/20 18:12:26;;;;;;;9.52;6.00;;;12.00;88.30;;;;;;6370357;22;20042;-95
2021/10/20 18:15:20;;;;;;;15.40;5.60;;;12.00;87.90;;;;;;6377991;22;20038;-96
2021/10/20 18:23:26;;;;;;;8.88;5.30;;;11.90;88.40;;;;;;6369772;22;20006;-96
2021/10/20 18:26:29;;;;;;;11.30;5.25;;;11.90;88.50;;;;;;6360345;22;20017;-96
2021/10/20 18:29:00;;;;;;;12.30;6.25;;;11.90;88.70;;;;;;6366441;22;20431;-95
2021/10/20 18:31:27;;;;;;;8.68;5.72;;;11.80;89.10;;;;;;6364240;22;19998;-96
2021/10/20 18:34:05;;;;;;;12.50;6.75;;;11.80;89.60;;;;;;6364766;22;20002;-96
2021/10/20 18:36:34;;;;;;;12.15;5.15;;;11.80;90.00;;;;;;6364460;22;20040;-96
2021/10/20 18:39:10;;;;;;;9.98;6.30;;;11.80;90.00;;;;;;6365415;22;20023;-96
2021/10/20 18:41:41;;;;;;;10.95;6.60;;;11.80;90.20;;;;;;6358654;22;20009;-96
2021/10/20 18:44:07;;;;;;;10.57;6.50;;;11.70;90.30;;;;;;6351378;22;20008;-95
2021/10/20 18:46:33;;;;;;;8.93;5.30;;;11.70;90.50;;;;;;6345358;22;20042;-95
2021/10/20 18:49:00;;;;;;;12.48;6.82;;;11.70;90.50;;;;;;6348378;22;20046;-96
2021/10/20 18:51:30;;;;;;;7.95;5.03;;;11.70;90.70;;;;;;6349780;22;20422;-96
2021/10/20 18:53:57;;;;;;;10.55;5.97;;;11.70;90.80;;;;;;6348351;22;20002;-94
2021/10/20 18:56:23;;;;;;;9.82;5.22;;;11.70;90.90;;;;;;6352407;22;20013;-94
2021/10/20 18:58:49;;;;;;;12.93;6.97;;;11.60;90.90;;;;;;6346016;22;19998;-94
2021/10/20 19:01:15;;;;;;;9.35;5.30;;;11.60;91.20;;;;;;6358336;22;20026;-96
2021/10/20 19:03:43;;;;;;;9.48;6.07;;;11.60;91.30;;;;;;6341842;22;20001;-96
2021/10/20 19:06:12;;;;;;;11.43;7.10;;;11.60;91.30;;;;;;6314644;22;20009;-95
2021/10/20 19:08:38;;;;;;;10.40;7.13;;;11.60;91.60;;;;;;6314888;22;20006;-95
2021/10/20 19:11:04;;;;;;;10.68;7.00;;;11.50;91.60;;;;;;6315156;22;20003;-94
2021/10/20 19:13:58;;;;;;;13.68;7.45;;;11.50;91.70;;;;;;6322798;22;20448;-96
2021/10/20 19:16:27;;;;;;;11.68;6.63;;;11.50;91.90;;;;;;6329366;22;20044;-96
2021/10/20 19:19:46;;;;;;;;;;;;;;;;;;;;;
2021/10/20 19:22:47;;;;;;;12.43;5.93;;;11.50;92.10;;;;;;6237874;23;20000;-96
2021/10/20 19:25:40;;;;;;;9.10;6.18;;;11.50;92.00;;;;;;6330836;22;20022;-96
2021/10/20 19:28:07;;;;;;;11.00;6.85;;;11.50;92.10;;;;;;6338940;22;20029;-94
2021/10/20 19:30:49;;;;;;;;;;;;;;;;;;;;;
2021/10/20 19:33:46;;;;;;;9.75;6.43;;;11.40;92.40;;;;;;6391988;22;20006;-96
2021/10/20 19:36:46;;;;;;;9.45;5.65;;;11.40;92.40;;;;;;6317960;22;20355;31
2021/10/20 19:39:23;;;;;;;9.20;5.15;;;11.40;92.50;;;;;;6349083;22;20043;-96
2021/10/20 19:41:51;;;;;;;9.10;6.03;;;11.40;92.50;;;;;;6367209;22;20036;-96
2021/10/20 19:44:30;;;;;;;13.88;7.38;;;11.30;92.70;;;;;;6361221;22;20022;-96
2021/10/20 19:47:13;;;;;;;;;;;;;;;;;;;;;
2021/10/20 19:49:57;;;;;;;8.40;5.35;;;11.30;92.90;;;;;;6391015;22;20022;-96
2021/10/20 19:52:46;;;;;;;11.00;6.03;;;11.30;93.00;;;;;;6351755;22;20090;-96
2021/10/20 19:55:38;;;;;;;11.98;6.75;;;11.20;93.10;;;;;;6375535;22;20019;-95
2021/10/20 19:58:16;;;;;;;;;;;;;;;;;;;;;
2021/10/20 20:00:52;;;;;;;11.15;6.10;;;11.20;93.30;;;;;;6395106;22;19993;-96
2021/10/20 20:03:40;;;;;;;10.02;5.50;;;11.20;93.40;;;;;;6363515;22;20018;-96
2021/10/20 20:14:17;;;;;;;11.55;6.30;;;11.10;93.90;;;;;;6376287;22;20019;-96
2021/10/20 20:16:46;;;;;;;10.02;6.50;;;11.10;93.80;;;;;;6363601;22;20002;-95
2021/10/20 20:19:21;;;;;;;9.40;6.13;;;11.10;93.90;;;;;;6370598;22;20024;-96
2021/10/20 20:22:15;;;;;;;10.20;6.50;;;11.10;94.00;;;;;;6391134;22;20002;-96
2021/10/20 20:24:41;;;;;;;9.95;6.45;;;11.00;94.20;;;;;;6393174;22;19995;-96
2021/10/20 20:27:10;;;;;;;14.02;7.47;;;11.00;94.20;;;;;;6359883;22;20021;-96
2021/10/20 20:29:41;;;;;;;11.43;7.40;;;11.00;94.50;;;;;;6357121;22;20010;-95
2021/10/20 20:32:20;;;;;;;12.37;8.17;;;11.00;94.50;;;;;;6389429;22;20024;-94
2021/10/20 20:34:54;;;;;;;14.65;8.43;;;11.00;94.60;;;;;;6361080;22;20010;-95
2021/10/20 20:40:08;;;;;;;13.43;7.78;;;11.00;94.70;;;;;;6369650;22;19994;-95
2021/10/20 20:42:52;;;;;;;15.90;8.45;;;10.90;94.80;;;;;;6365783;22;20002;-94
2021/10/20 20:45:18;;;;;;;10.70;6.13;;;10.90;94.80;;;;;;6388317;22;20005;-96
2021/10/20 20:47:47;;;;;;;9.05;6.43;;;10.90;94.70;;;;;;6362835;22;20002;-96
2021/10/20 20:50:17;;;;;;;8.52;6.05;;;10.90;94.80;;;;;;6362769;22;20041;-96
2021/10/20 20:52:56;;;;;;;11.00;6.55;;;10.90;94.80;;;;;;6392163;22;19994;-96
2021/10/20 20:55:33;;;;;;;9.18;6.53;;;10.90;95.00;;;;;;6365546;22;19986;-95
2021/10/20 20:58:11;;;;;;;9.50;6.07;;;10.90;95.10;;;;;;6392156;22;20035;-96
2021/10/20 21:00:49;;;;;;;11.68;6.50;;;10.90;95.00;;;;;;6391307;22;19978;-94
2021/10/20 21:03:16;;;;;;;11.88;6.82;;;10.90;95.00;;;;;;6360772;22;20044;-96
2021/10/20 21:09:07;;;;;;;12.68;6.32;;;10.90;95.20;;;;;;6389654;22;20005;-96
2021/10/20 21:11:34;;;;;;;9.82;6.43;;;10.90;95.10;;;;;;6357088;22;19999;-96
2021/10/20 21:14:00;;;;;;;9.90;6.22;;;10.90;95.20;;;;;;6352181;22;20003;-96
2021/10/20 21:16:25;;;;;;;9.80;6.45;;;10.90;95.20;;;;;;6356435;22;20040;-95
2021/10/20 21:18:54;;;;;;;10.63;6.10;;;10.90;95.20;;;;;;6360604;22;20059;-96
2021/10/20 21:21:23;;;;;;;8.65;6.20;;;10.90;95.30;;;;;;6358720;22;20028;-95
2021/10/20 21:23:49;;;;;;;10.82;6.78;;;10.90;95.30;;;;;;6357861;22;20038;-96
2021/10/20 21:26:15;;;;;;;10.77;6.28;;;10.90;95.20;;;;;;6355815;22;20011;-95
2021/10/20 21:28:44;;;;;;;9.13;5.72;;;10.80;95.20;;;;;;6347920;22;20081;-94
2021/10/20 21:31:13;;;;;;;10.05;7.53;;;10.80;95.20;;;;;;6345012;22;20005;-95
2021/10/20 21:33:39;;;;;;;10.85;6.60;;;10.80;95.30;;;;;;6348837;22;19994;-95
2021/10/20 21:36:05;;;;;;;9.93;6.50;;;10.80;95.30;;;;;;6349655;22;20003;-94
2021/10/20 21:38:31;;;;;;;9.68;5.82;;;10.80;95.30;;;;;;6349228;22;20028;-93
2021/10/20 21:40:57;;;;;;;11.77;5.82;;;10.80;95.20;;;;;;6345629;22;20002;-94
2021/10/20 21:43:23;;;;;;;12.88;6.80;;;10.80;95.20;;;;;;6345606;22;20002;-94
2021/10/20 21:46:06;;;;;;;12.20;6.70;;;10.80;95.30;;;;;;6373615;22;19995;-92
2021/10/20 21:49:09;;;;;;;10.45;6.85;;;10.80;95.40;;;;;;6346352;22;20452;-93
2021/10/20 21:52:25;;;;;;;11.30;6.88;;;10.80;95.30;;;;;;6346746;22;20073;-92
2021/10/20 21:55:09;;;;;;;15.07;7.95;;;10.80;95.60;;;;;;6352778;22;20002;-92
2021/10/20 21:57:36;;;;;;;10.23;5.95;;;10.80;95.40;;;;;;6346180;22;19995;-91
2021/10/20 22:00:13;;;;;;;11.02;7.25;;;10.80;95.40;;;;;;6372934;22;20029;-91
2021/10/20 22:02:39;;;;;;;8.68;5.43;;;10.80;95.50;;;;;;6315303;22;20068;-91
2021/10/20 22:05:06;;;;;;;11.82;6.28;;;10.80;95.50;;;;;;6314202;22;20026;-91
2021/10/20 22:07:32;;;;;;;9.70;5.43;;;10.70;95.50;;;;;;6314352;22;20330;-91
2021/10/20 22:09:58;;;;;;;7.82;5.72;;;10.80;95.60;;;;;;6314410;22;20006;-91
2021/10/20 22:12:24;;;;;;;13.15;6.40;;;10.70;95.50;;;;;;6341851;22;19999;-91
2021/10/20 22:14:50;;;;;;;11.05;6.13;;;10.80;95.60;;;;;;6341793;22;20001;-91
2021/10/20 22:17:16;;;;;;;13.43;6.03;;;10.70;95.60;;;;;;6314439;22;20081;-91
2021/10/20 22:19:43;;;;;;;11.65;6.63;;;10.70;95.60;;;;;;6314267;22;20034;-92
2021/10/20 22:22:11;;;;;;;9.15;6.20;;;10.70;95.80;;;;;;6314731;22;20394;-91
2021/10/20 22:24:38;;;;;;;11.25;6.57;;;10.70;95.70;;;;;;6314591;22;20010;-92
2021/10/20 22:27:08;;;;;;;8.70;5.75;;;10.70;95.70;;;;;;6314493;22;20091;-91
2021/10/20 22:29:34;;;;;;;11.35;6.75;;;10.70;95.60;;;;;;6314415;22;20007;-92
2021/10/20 22:32:02;;;;;;;10.23;6.50;;;10.70;95.80;;;;;;6341586;22;19999;-91
2021/10/20 22:34:28;;;;;;;8.85;6.32;;;10.70;95.70;;;;;;6314013;22;20492;-91
2021/10/20 22:36:54;;;;;;;9.73;6.57;;;10.70;95.80;;;;;;6314226;22;20046;-91
2021/10/20 22:39:20;;;;;;;17.75;7.60;;;10.70;95.80;;;;;;6314204;22;20422;-91
2021/10/20 22:41:46;;;;;;;10.07;6.43;;;10.70;95.80;;;;;;6314112;22;20003;-92
2021/10/20 22:44:12;;;;;;;9.15;6.22;;;10.70;95.80;;;;;;6314293;22;20433;-92
2021/10/20 22:46:41;;;;;;;9.50;6.50;;;10.70;95.80;;;;;;6314135;22;20057;-91
2021/10/20 22:49:08;;;;;;;10.32;5.65;;;10.70;95.80;;;;;;6341094;22;19999;-91
2021/10/20 22:51:35;;;;;;;11.07;6.78;;;10.80;95.70;;;;;;6314141;22;20073;-91
2021/10/20 22:54:04;;;;;;;10.57;7.25;;;10.80;95.70;;;;;;6314068;22;20003;-91
2021/10/20 22:56:31;;;;;;;9.80;5.75;;;10.80;95.70;;;;;;6314609;22;20006;-91
2021/10/20 22:58:57;;;;;;;7.60;5.47;;;10.80;95.70;;;;;;6314135;22;20022;-91
2021/10/20 23:01:22;;;;;;;10.95;8.20;;;10.80;95.60;;;;;;6314085;22;19995;-91
2021/10/20 23:03:48;;;;;;;11.35;6.57;;;10.80;95.70;;;;;;6314029;22;20290;-91
2021/10/20 23:06:17;;;;;;;8.18;6.13;;;10.80;95.70;;;;;;6313878;22;20029;-92
2021/10/20 23:08:43;;;;;;;8.48;6.40;;;10.80;95.60;;;;;;6314615;22;20032;-91
2021/10/20 23:11:10;;;;;;;9.27;6.80;;;10.80;95.50;;;;;;6314058;22;19999;-92
2021/10/20 23:13:36;;;;;;;10.60;7.45;;;10.90;95.70;;;;;;6314329;22;20367;-91
2021/10/20 23:16:03;;;;;;;10.55;6.95;;;10.90;95.70;;;;;;6342415;22;20006;-92
2021/10/20 23:18:28;;;;;;;10.60;6.22;;;10.90;95.60;;;;;;6315924;22;20023;-91
2021/10/20 23:20:54;;;;;;;10.68;6.93;;;10.90;95.60;;;;;;6317842;22;20010;-91
2021/10/20 23:23:20;;;;;;;12.95;7.38;;;10.90;95.60;;;;;;6324519;22;20019;-91
2021/10/20 23:25:46;;;;;;;12.85;7.25;;;10.90;95.60;;;;;;6338414;22;19990;-91
2021/10/20 23:28:13;;;;;;;12.15;6.63;;;10.80;95.60;;;;;;6338725;22;20002;-91
2021/10/20 23:30:40;;;;;;;10.98;6.43;;;10.80;95.60;;;;;;6337578;22;20002;-92
2021/10/20 23:33:06;;;;;;;12.40;7.40;;;10.80;95.60;;;;;;6340873;22;20041;-92
2021/10/20 23:35:34;;;;;;;12.70;8.10;;;10.80;95.60;;;;;;6313961;22;20015;-91
2021/10/20 23:38:00;;;;;;;10.90;6.50;;;10.80;95.90;;;;;;6313879;22;19999;-92
2021/10/20 23:40:26;;;;;;;11.43;7.28;;;10.70;95.70;;;;;;6313527;22;19995;-91
2021/10/20 23:42:52;;;;;;;11.95;7.95;;;10.70;95.70;;;;;;6313917;22;20440;-92
2021/10/20 23:45:19;;;;;;;11.02;6.43;;;10.70;95.80;;;;;;6340657;22;19995;-92
2021/10/20 23:47:44;;;;;;;10.18;7.32;;;10.70;95.70;;;;;;6313636;22;20013;-91
2021/10/20 23:50:11;;;;;;;11.98;6.97;;;10.60;95.80;;;;;;6313568;22;20322;-91
2021/10/20 23:52:40;;;;;;;10.85;6.45;;;10.60;95.80;;;;;;6313584;22;19999;-91
2021/10/20 23:55:08;;;;;;;9.95;5.45;;;10.60;95.90;;;;;;6313399;22;20003;-92
2021/10/20 23:57:34;;;;;;;12.40;6.97;;;10.60;95.90;;;;;;6313390;22;20453;-91
